createdAt,value
2018-12-18T00:01:57.997Z,18.80
2018-12-18T00:04:26.252Z,19.07
2018-12-18T00:06:54.551Z,20.17
2018-12-18T00:09:23.353Z,21.80
2018-12-18T00:11:52.406Z,19.33
2018-12-18T00:14:21.051Z,20.20
2018-12-18T00:16:49.471Z,18.47
2018-12-18T00:19:18.364Z,18.13
2018-12-18T00:21:47.327Z,20.70
2018-12-18T00:24:16.196Z,20.33
2018-12-18T00:26:44.960Z,19.40
2018-12-18T00:29:14.916Z,22.10
2018-12-18T00:31:44.685Z,19.93
2018-12-18T00:34:13.003Z,20.10
2018-12-18T00:36:41.667Z,19.62
2018-12-18T00:40:17.376Z,20.20
2018-12-18T00:42:45.559Z,20.77
2018-12-18T00:45:14.935Z,19.27
2018-12-18T00:47:44.762Z,19.35
2018-12-18T00:50:14.603Z,19.87
2018-12-18T00:52:43.556Z,19.25
2018-12-18T00:55:13.940Z,20.57
2018-12-18T00:57:43.073Z,21.00
2018-12-18T01:00:11.985Z,21.57
2018-12-18T01:02:40.136Z,19.35
2018-12-18T01:05:09.247Z,20.43
2018-12-18T01:07:37.607Z,21.33
2018-12-18T01:10:07.203Z,20.53
2018-12-18T01:12:35.295Z,19.73
2018-12-18T01:15:04.867Z,21.35
2018-12-18T01:17:32.944Z,21.23
2018-12-18T01:20:02.588Z,21.30
2018-12-18T01:22:31.355Z,21.23
2018-12-18T01:24:59.535Z,21.43
2018-12-18T01:27:27.711Z,19.80
2018-12-18T01:29:55.886Z,20.17
2018-12-18T01:32:25.083Z,21.43
2018-12-18T01:34:53.931Z,21.53
2018-12-18T01:37:22.155Z,21.00
2018-12-18T01:39:51.167Z,21.90
2018-12-18T01:42:19.276Z,20.23
2018-12-18T01:44:47.483Z,22.00
2018-12-18T01:47:16.267Z,22.20
2018-12-18T01:49:44.931Z,20.53
2018-12-18T01:52:13.967Z,20.27
2018-12-18T01:54:42.879Z,20.43
2018-12-18T01:57:11.032Z,19.37
2018-12-18T01:59:39.275Z,20.10
2018-12-18T02:02:08.365Z,20.47
2018-12-18T02:04:37.299Z,19.50
2018-12-18T02:07:06.089Z,20.43
2018-12-18T02:09:35.235Z,20.70
2018-12-18T02:12:03.868Z,19.93
2018-12-18T02:14:32.347Z,22.67
2018-12-18T02:17:01.283Z,20.87
2018-12-18T02:19:30.256Z,20.43
2018-12-18T02:21:58.461Z,21.73
2018-12-18T02:24:26.799Z,21.63
2018-12-18T02:26:55.140Z,21.13
2018-12-18T02:29:23.372Z,21.90
2018-12-18T02:31:51.807Z,23.10
2018-12-18T02:34:20.756Z,21.90
2018-12-18T02:36:49.527Z,21.03
2018-12-18T02:39:19.035Z,22.23
2018-12-18T02:41:48.014Z,22.43
2018-12-18T02:44:17.135Z,22.60
2018-12-18T02:46:46.787Z,22.77
2018-12-18T02:49:16.151Z,21.83
2018-12-18T02:51:44.988Z,23.33
2018-12-18T02:54:13.420Z,23.77
2018-12-18T02:56:42.455Z,23.67
2018-12-18T02:59:12.347Z,24.17
2018-12-18T03:01:40.669Z,23.67
2018-12-18T03:04:10.064Z,24.37
2018-12-18T03:06:38.943Z,25.20
2018-12-18T03:09:08.133Z,23.33
2018-12-18T03:11:36.411Z,24.75
2018-12-18T03:14:05.132Z,23.23
2018-12-18T03:16:34.393Z,23.13
2018-12-18T03:19:03.376Z,23.33
2018-12-18T03:21:32.680Z,22.90
2018-12-18T03:24:01.161Z,23.33
2018-12-18T03:26:29.610Z,24.50
2018-12-18T03:28:58.041Z,22.67
2018-12-18T03:31:27.160Z,22.37
2018-12-18T03:33:55.330Z,22.57
2018-12-18T03:36:23.852Z,23.80
2018-12-18T03:38:52.407Z,22.80
2018-12-18T03:41:20.759Z,21.20
2018-12-18T03:43:48.963Z,22.87
2018-12-18T03:46:17.920Z,22.93
2018-12-18T03:48:46.482Z,20.70
2018-12-18T03:51:14.812Z,22.00
2018-12-18T03:53:42.993Z,23.63
2018-12-18T03:56:11.544Z,22.27
2018-12-18T03:58:40.003Z,22.60
2018-12-18T04:01:08.137Z,23.30
2018-12-18T04:03:36.440Z,23.43
2018-12-18T04:06:05.531Z,22.73
2018-12-18T04:08:33.600Z,23.67
2018-12-18T04:11:01.843Z,23.50
2018-12-18T04:13:30.246Z,24.47
2018-12-18T04:15:58.601Z,23.73
2018-12-18T04:18:27.732Z,22.67
2018-12-18T04:20:56.900Z,23.30
2018-12-18T04:23:25.036Z,23.10
2018-12-18T04:25:55.080Z,22.07
2018-12-18T04:28:24.043Z,23.77
2018-12-18T04:30:53.075Z,24.03
2018-12-18T04:33:23.043Z,24.00
2018-12-18T04:35:52.029Z,23.13
2018-12-18T04:38:20.692Z,24.33
2018-12-18T04:40:48.938Z,23.80
2018-12-18T04:43:17.801Z,23.57
2018-12-18T04:45:47.127Z,24.80
2018-12-18T04:48:16.843Z,23.13
2018-12-18T04:50:46.967Z,24.30
2018-12-18T04:53:15.056Z,22.73
2018-12-18T04:55:44.098Z,24.23
2018-12-18T04:58:13.069Z,23.77
2018-12-18T05:00:41.461Z,23.23
2018-12-18T05:03:10.526Z,23.00
2018-12-18T05:05:39.939Z,24.47
2018-12-18T05:08:08.939Z,23.27
2018-12-18T05:10:37.931Z,21.87
2018-12-18T05:13:07.013Z,22.93
2018-12-18T05:15:35.821Z,20.67
2018-12-18T05:18:04.881Z,21.37
2018-12-18T05:20:33.695Z,21.27
2018-12-18T05:23:02.087Z,21.27
2018-12-18T05:25:30.514Z,20.77
2018-12-18T05:27:58.675Z,22.00
2018-12-18T05:30:27.437Z,20.27
2018-12-18T05:32:56.559Z,21.70
2018-12-18T05:35:25.327Z,21.50
2018-12-18T05:37:53.467Z,25.95
2018-12-18T05:40:21.899Z,20.50
2018-12-18T05:42:50.119Z,19.73
2018-12-18T05:45:19.936Z,20.07
2018-12-18T05:47:49.695Z,20.00
2018-12-18T05:50:18.747Z,19.30
2018-12-18T05:52:48.279Z,18.65
2018-12-18T05:55:17.285Z,19.27
2018-12-18T05:57:46.575Z,19.27
2018-12-18T06:00:15.847Z,18.90
2018-12-18T06:02:45.421Z,19.85
2018-12-18T06:05:13.567Z,20.40
2018-12-18T06:07:42.419Z,18.10
2018-12-18T06:10:12.493Z,20.13
2018-12-18T06:12:40.991Z,19.10
2018-12-18T06:15:10.142Z,19.83
2018-12-18T06:17:38.619Z,19.27
2018-12-18T06:20:07.311Z,18.67
2018-12-18T06:22:35.511Z,19.10
2018-12-18T06:25:05.332Z,18.37
2018-12-18T06:27:36.005Z,18.27
2018-12-18T06:30:04.576Z,19.80
2018-12-18T06:32:33.256Z,18.27
2018-12-18T06:35:02.183Z,17.27
2018-12-18T06:37:30.879Z,16.83
2018-12-18T06:39:59.103Z,17.40
2018-12-18T06:42:27.371Z,18.67
2018-12-18T06:44:56.015Z,16.65
2018-12-18T06:47:24.454Z,16.57
2018-12-18T06:49:52.992Z,17.67
2018-12-18T06:52:21.749Z,17.27
2018-12-18T06:54:49.923Z,18.20
2018-12-18T06:57:18.124Z,18.27
2018-12-18T06:59:46.275Z,17.20
2018-12-18T07:02:15.459Z,16.70
2018-12-18T07:04:44.771Z,16.40
2018-12-18T07:07:13.903Z,18.02
2018-12-18T07:09:42.171Z,17.12
2018-12-18T07:12:11.232Z,17.40
2018-12-18T07:14:40.635Z,17.30
2018-12-18T07:17:09.539Z,17.53
2018-12-18T07:19:38.819Z,17.87
2018-12-18T07:22:08.234Z,18.43
2018-12-18T07:24:36.615Z,18.00
2018-12-18T07:27:05.607Z,17.43
2018-12-18T07:29:35.628Z,19.00
2018-12-18T07:32:03.775Z,18.93
2018-12-18T07:34:33.473Z,19.20
2018-12-18T07:37:01.837Z,18.43
2018-12-18T07:39:30.001Z,17.67
2018-12-18T07:41:58.234Z,17.73
2018-12-18T07:44:28.243Z,17.17
2018-12-18T07:46:56.446Z,17.80
2018-12-18T07:49:25.703Z,17.50
2018-12-18T07:51:54.828Z,18.87
2018-12-18T07:54:23.567Z,16.90
2018-12-18T07:56:51.651Z,18.13
2018-12-18T07:59:19.891Z,18.00
2018-12-18T08:01:48.154Z,17.95
2018-12-18T08:04:16.688Z,16.97
2018-12-18T08:06:45.297Z,17.00
2018-12-18T08:09:14.575Z,17.63
2018-12-18T08:11:43.675Z,20.63
2018-12-18T08:14:12.672Z,20.23
2018-12-18T08:16:41.295Z,18.90
2018-12-18T08:19:09.513Z,19.53
2018-12-18T08:21:38.683Z,21.33
2018-12-18T08:24:06.965Z,19.43
2018-12-18T08:26:35.179Z,19.17
2018-12-18T08:29:04.020Z,20.55
2018-12-18T08:31:32.154Z,19.40
2018-12-18T08:34:00.311Z,21.20
2018-12-18T08:36:29.212Z,21.73
2018-12-18T08:38:57.588Z,20.57
2018-12-18T08:41:25.991Z,19.80
2018-12-18T08:43:54.567Z,20.13
2018-12-18T08:46:22.759Z,20.30
2018-12-18T08:48:51.495Z,20.73
2018-12-18T08:51:19.734Z,20.17
2018-12-18T08:53:49.419Z,20.33
2018-12-18T08:56:18.479Z,22.83
2018-12-18T08:58:46.752Z,20.40
2018-12-18T09:01:14.987Z,19.47
2018-12-18T09:03:43.878Z,20.37
2018-12-18T09:06:13.123Z,19.37
2018-12-18T09:08:43.523Z,20.77
2018-12-18T09:11:11.815Z,18.07
2018-12-18T09:13:41.839Z,19.70
2018-12-18T09:16:15.295Z,18.93
2018-12-18T09:18:44.723Z,18.70
2018-12-18T09:21:12.940Z,19.73
2018-12-18T09:23:42.007Z,18.50
2018-12-18T09:26:11.047Z,18.47
2018-12-18T09:28:39.615Z,17.90
2018-12-18T09:31:08.067Z,19.73
2018-12-18T09:33:37.855Z,19.80
2018-12-18T09:36:07.143Z,18.60
2018-12-18T09:38:41.743Z,17.93
2018-12-18T09:41:16.090Z,20.20
2018-12-18T09:43:51.085Z,18.50
2018-12-18T09:46:20.016Z,19.43
2018-12-18T09:48:48.360Z,18.90
2018-12-18T09:51:16.623Z,19.20
2018-12-18T09:53:45.739Z,21.73
2018-12-18T09:56:14.851Z,19.47
2018-12-18T09:58:43.026Z,21.17
2018-12-18T10:01:12.108Z,19.73
2018-12-18T10:03:40.455Z,20.47
2018-12-18T10:06:09.008Z,20.57
2018-12-18T10:08:38.268Z,18.97
2018-12-18T10:11:07.822Z,18.12
2018-12-18T10:13:36.359Z,17.77
2018-12-18T10:16:04.903Z,17.20
2018-12-18T10:18:35.371Z,17.57
2018-12-18T10:21:03.830Z,17.40
2018-12-18T10:23:33.623Z,16.40
2018-12-18T10:26:02.532Z,16.37
2018-12-18T10:28:31.438Z,16.47
2018-12-18T10:31:00.831Z,16.47
2018-12-18T10:33:29.362Z,14.80
2018-12-18T10:36:02.970Z,15.83
2018-12-18T10:38:29.211Z,15.33
2018-12-18T10:40:57.805Z,15.30
2018-12-18T10:43:26.151Z,14.83
2018-12-18T10:45:54.531Z,14.30
2018-12-18T10:48:23.575Z,14.53
2018-12-18T10:50:51.803Z,13.33
2018-12-18T10:53:21.342Z,13.50
2018-12-18T10:55:49.601Z,13.78
2018-12-18T10:58:23.971Z,13.40
2018-12-18T11:00:56.108Z,13.70
2018-12-18T11:03:24.375Z,14.20
2018-12-18T11:05:53.395Z,12.40
2018-12-18T11:08:21.756Z,13.73
2018-12-18T11:10:50.159Z,13.88
2018-12-18T11:13:19.231Z,13.60
2018-12-18T11:15:49.462Z,13.97
2018-12-18T11:18:18.796Z,13.77
2018-12-18T11:20:46.995Z,14.17
2018-12-18T11:23:16.692Z,12.83
2018-12-18T11:25:44.788Z,14.68
2018-12-18T11:28:13.508Z,14.90
2018-12-18T11:30:42.300Z,14.33
2018-12-18T11:33:10.868Z,14.87
2018-12-18T11:35:39.016Z,15.30
2018-12-18T11:38:07.971Z,13.73
2018-12-18T11:40:36.339Z,13.60
2018-12-18T11:43:04.507Z,14.17
2018-12-18T11:45:33.487Z,15.17
2018-12-18T11:48:02.567Z,14.23
2018-12-18T11:50:31.295Z,15.03
2018-12-18T11:52:59.519Z,13.70
2018-12-18T11:55:28.652Z,14.67
2018-12-18T11:57:56.723Z,13.70
2018-12-18T12:00:25.664Z,13.17
2018-12-18T12:02:54.199Z,14.45
2018-12-18T12:05:24.082Z,13.80
2018-12-18T12:07:52.500Z,14.00
2018-12-18T12:10:21.268Z,13.93
2018-12-18T12:12:49.515Z,13.40
2018-12-18T12:15:18.596Z,12.77
2018-12-18T12:17:48.363Z,13.18
2018-12-18T12:20:16.967Z,13.80
2018-12-18T12:22:46.031Z,13.32
2018-12-18T12:25:15.319Z,15.50
2018-12-18T12:27:50.467Z,13.83
2018-12-18T12:30:19.358Z,13.33
2018-12-18T12:32:47.528Z,13.60
2018-12-18T12:35:17.143Z,14.77
2018-12-18T12:37:46.201Z,15.13
2018-12-18T12:40:15.004Z,15.43
2018-12-18T12:42:44.023Z,15.53
2018-12-18T12:45:12.207Z,15.57
2018-12-18T12:47:40.755Z,14.55
2018-12-18T12:50:09.767Z,13.77
2018-12-18T12:52:38.872Z,14.70
2018-12-18T12:55:07.247Z,14.70
2018-12-18T12:57:35.388Z,15.17
2018-12-18T13:00:04.369Z,15.13
2018-12-18T13:02:34.533Z,13.53
2018-12-18T13:05:02.823Z,15.27
2018-12-18T13:07:33.119Z,14.07
2018-12-18T13:10:06.825Z,15.17
2018-12-18T13:12:36.090Z,15.30
2018-12-18T13:15:04.892Z,15.43
2018-12-18T13:17:33.280Z,15.30
2018-12-18T13:20:02.824Z,13.80
2018-12-18T13:22:33.108Z,15.17
2018-12-18T13:25:01.478Z,16.07
2018-12-18T13:27:30.096Z,15.63
2018-12-18T13:29:59.315Z,14.10
2018-12-18T13:32:29.221Z,15.10
2018-12-18T13:34:57.479Z,15.13
2018-12-18T13:37:26.345Z,14.37
2018-12-18T13:39:56.183Z,13.70
2018-12-18T13:42:25.906Z,14.53
2018-12-18T13:44:54.516Z,14.67
2018-12-18T13:47:27.204Z,13.40
2018-12-18T13:49:53.542Z,15.32
2018-12-18T13:52:23.196Z,14.87
2018-12-18T13:54:51.523Z,13.83
2018-12-18T13:57:21.496Z,14.23
2018-12-18T13:59:49.871Z,13.75
2018-12-18T14:02:17.964Z,13.87
2018-12-18T14:04:46.331Z,14.07
2018-12-18T14:07:15.227Z,13.80
2018-12-18T14:09:43.922Z,15.03
2018-12-18T14:12:13.678Z,13.50
2018-12-18T14:14:41.904Z,13.33
2018-12-18T14:17:10.079Z,12.67
2018-12-18T14:19:40.331Z,12.23
2018-12-18T14:22:08.566Z,11.73
2018-12-18T14:24:36.796Z,12.00
2018-12-18T14:27:06.763Z,10.37
2018-12-18T14:29:35.030Z,11.17
2018-12-18T14:32:03.751Z,10.33
2018-12-18T14:34:31.955Z,11.57
2018-12-18T14:37:00.547Z,11.53
2018-12-18T14:39:28.671Z,11.30
2018-12-18T14:41:58.106Z,10.80
2018-12-18T14:44:26.427Z,10.83
2018-12-18T14:46:55.411Z,11.63
2018-12-18T14:49:23.690Z,11.50
2018-12-18T14:51:52.052Z,15.95
2018-12-18T14:54:20.711Z,11.70
2018-12-18T14:56:50.125Z,10.55
2018-12-18T14:59:19.436Z,21.30
2018-12-18T15:02:03.419Z,12.07
2018-12-18T15:04:31.731Z,12.33
2018-12-18T15:07:03.001Z,9.70
2018-12-18T15:09:32.149Z,9.57
2018-12-18T15:12:00.875Z,10.57
2018-12-18T15:14:29.368Z,9.53
2018-12-18T15:16:57.984Z,9.20
2018-12-18T15:19:26.575Z,9.90
2018-12-18T15:21:55.552Z,10.25
2018-12-18T15:24:23.787Z,14.17
2018-12-18T15:26:52.156Z,11.48
2018-12-18T15:29:21.199Z,13.03
2018-12-18T15:31:50.976Z,11.93
2018-12-18T15:34:19.199Z,10.80
2018-12-18T15:36:47.512Z,12.50
2018-12-18T15:39:16.835Z,12.83
2018-12-18T15:41:45.416Z,13.17
2018-12-18T15:44:14.537Z,13.77
2018-12-18T15:46:42.764Z,11.73
2018-12-18T15:49:10.906Z,11.67
2018-12-18T15:51:39.675Z,11.40
2018-12-18T15:54:08.335Z,9.77
2018-12-18T15:56:36.715Z,11.35
2018-12-18T15:59:05.452Z,10.23
2018-12-18T16:01:33.890Z,11.13
2018-12-18T16:04:02.332Z,9.73
2018-12-18T16:06:31.288Z,11.17
2018-12-18T16:09:00.388Z,13.37
2018-12-18T16:11:30.963Z,10.80
2018-12-18T16:13:59.151Z,10.83
2018-12-18T16:16:27.391Z,8.60
2018-12-18T16:18:56.532Z,9.60
2018-12-18T16:21:24.607Z,9.07
2018-12-18T16:23:52.848Z,8.83
2018-12-18T16:26:21.923Z,8.37
2018-12-18T16:28:50.675Z,8.35
2018-12-18T16:31:19.535Z,7.27
2018-12-18T16:33:47.810Z,7.97
2018-12-18T16:36:17.884Z,7.60
2018-12-18T16:38:46.607Z,7.90
2018-12-18T16:41:14.907Z,7.63
2018-12-18T16:43:43.435Z,7.42
2018-12-18T16:46:11.668Z,10.77
2018-12-18T16:48:40.793Z,7.57
2018-12-18T16:51:09.046Z,7.23
2018-12-18T16:53:37.275Z,8.35
2018-12-18T16:56:06.685Z,7.43
2018-12-18T16:58:34.937Z,9.03
2018-12-18T17:01:03.839Z,7.90
2018-12-18T17:03:32.252Z,7.17
2018-12-18T17:06:00.687Z,8.03
2018-12-18T17:08:29.370Z,6.40
2018-12-18T17:10:57.663Z,6.37
2018-12-18T17:13:25.730Z,6.67
2018-12-18T17:15:55.383Z,7.17
2018-12-18T17:18:23.892Z,6.63
2018-12-18T17:20:52.655Z,6.23
2018-12-18T17:23:21.240Z,7.13
2018-12-18T17:25:49.871Z,5.93
2018-12-18T17:28:18.095Z,7.00
2018-12-18T17:30:47.835Z,6.78
2018-12-18T17:33:16.076Z,6.87
2018-12-18T17:35:46.902Z,6.55
2018-12-18T17:38:15.820Z,7.37
2018-12-18T17:40:45.928Z,6.87
2018-12-18T17:43:16.770Z,7.83
2018-12-18T17:45:45.803Z,6.43
2018-12-18T17:48:13.988Z,6.97
2018-12-18T17:50:42.183Z,6.25
2018-12-18T17:53:11.727Z,6.00
2018-12-18T17:55:40.635Z,5.77
2018-12-18T17:58:09.186Z,6.27
2018-12-18T18:00:38.129Z,7.47
2018-12-18T18:03:06.458Z,6.70
2018-12-18T18:05:35.499Z,6.77
2018-12-18T18:08:04.919Z,7.13
2018-12-18T18:10:33.095Z,6.70
2018-12-18T18:13:01.443Z,7.50
2018-12-18T18:15:31.843Z,7.06
2018-12-18T18:18:02.632Z,6.50
2018-12-18T18:20:31.827Z,7.00
2018-12-18T18:23:00.799Z,6.55
2018-12-18T18:25:29.018Z,6.73
2018-12-18T18:27:57.220Z,8.50
2018-12-18T18:30:25.332Z,6.37
2018-12-18T18:32:54.420Z,6.15
2018-12-18T18:35:23.872Z,6.07
2018-12-18T18:37:52.045Z,6.15
2018-12-18T18:40:21.047Z,6.33
2018-12-18T18:42:50.264Z,6.10
2018-12-18T18:45:18.438Z,6.97
2018-12-18T18:47:46.523Z,7.70
2018-12-18T18:50:15.890Z,8.07
2018-12-18T18:52:43.991Z,7.60
2018-12-18T18:55:12.384Z,9.03
2018-12-18T18:57:42.292Z,7.43
2018-12-18T19:00:11.229Z,7.50
2018-12-18T19:02:39.539Z,7.85
2018-12-18T19:05:07.908Z,9.37
2018-12-18T19:07:36.099Z,7.17
2018-12-18T19:10:06.228Z,7.53
2018-12-18T19:12:35.668Z,8.23
2018-12-18T19:15:05.489Z,8.60
2018-12-18T19:17:33.756Z,8.00
2018-12-18T19:20:03.117Z,9.17
2018-12-18T19:22:31.579Z,7.97
2018-12-18T19:24:59.727Z,7.00
2018-12-18T19:27:28.135Z,8.43
2018-12-18T19:29:56.845Z,7.50
2018-12-18T19:32:25.499Z,9.20
2018-12-18T19:34:53.583Z,9.20
2018-12-18T19:37:21.831Z,8.00
2018-12-18T19:39:50.193Z,8.40
2018-12-18T19:42:18.575Z,7.47
2018-12-18T19:44:47.362Z,7.90
2018-12-18T19:47:15.599Z,7.70
2018-12-18T19:49:43.963Z,7.63
2018-12-18T19:52:12.402Z,7.77
2018-12-18T19:54:40.637Z,7.10
2018-12-18T19:57:10.192Z,11.80
2018-12-18T19:59:38.368Z,7.83
2018-12-18T20:02:07.211Z,7.63
2018-12-18T20:04:35.277Z,9.00
2018-12-18T20:07:04.875Z,10.40
2018-12-18T20:09:34.455Z,12.15
2018-12-18T20:12:03.618Z,10.53
2018-12-18T20:14:32.671Z,7.60
2018-12-18T20:17:02.569Z,9.23
2018-12-18T20:19:30.851Z,8.93
2018-12-18T20:22:00.065Z,8.57
2018-12-18T20:24:28.537Z,7.90
2018-12-18T20:26:58.035Z,7.03
2018-12-18T20:29:27.225Z,6.97
2018-12-18T20:31:55.631Z,6.87
2018-12-18T20:34:24.851Z,7.62
2018-12-18T20:36:53.084Z,8.53
2018-12-18T20:39:22.303Z,8.10
2018-12-18T20:41:51.407Z,7.90
2018-12-18T20:44:20.470Z,7.40
2018-12-18T20:46:48.696Z,7.95
2018-12-18T20:49:17.460Z,7.63
2018-12-18T20:51:47.149Z,7.03
2018-12-18T20:54:16.536Z,7.60
2018-12-18T20:56:44.710Z,6.43
2018-12-18T20:59:13.007Z,7.53
2018-12-18T21:01:42.343Z,8.43
2018-12-18T21:04:10.500Z,8.07
2018-12-18T21:06:39.427Z,7.72
2018-12-18T21:09:38.772Z,8.03
2018-12-18T21:12:07.099Z,8.73
2018-12-18T21:14:36.152Z,8.45
2018-12-18T21:17:05.088Z,8.60
2018-12-18T21:19:34.087Z,9.97
2018-12-18T21:22:03.435Z,9.90
2018-12-18T21:24:33.459Z,8.07
2018-12-18T21:27:04.195Z,10.37
2018-12-18T21:29:32.627Z,9.63
2018-12-18T21:32:02.460Z,9.87
2018-12-18T21:34:31.395Z,10.83
2018-12-18T21:37:00.427Z,10.57
2018-12-18T21:39:30.199Z,11.05
2018-12-18T21:41:59.461Z,9.70
2018-12-18T21:44:27.644Z,10.03
2018-12-18T21:46:56.355Z,11.77
2018-12-18T21:49:25.051Z,10.20
2018-12-18T21:51:54.005Z,10.23
2018-12-18T21:54:22.127Z,10.98
2018-12-18T21:56:51.423Z,11.37
2018-12-18T21:59:19.744Z,11.63
2018-12-18T22:01:49.247Z,11.20
2018-12-18T22:04:17.943Z,9.63
2018-12-18T22:06:46.324Z,10.50
2018-12-18T22:09:16.082Z,10.23
2018-12-18T22:11:44.383Z,10.13
2018-12-18T22:14:12.551Z,10.00
2018-12-18T22:16:41.336Z,9.58
2018-12-18T22:19:09.541Z,10.33
2018-12-18T22:21:39.215Z,9.93
2018-12-18T22:24:07.486Z,9.67
2018-12-18T22:26:37.056Z,8.93
2018-12-18T22:29:05.880Z,8.53
2018-12-18T22:31:34.127Z,9.23
2018-12-18T22:34:03.663Z,9.07
2018-12-18T22:36:31.956Z,8.43
2018-12-18T22:39:00.703Z,8.37
2018-12-18T22:41:30.295Z,8.50
2018-12-18T22:43:58.491Z,8.80
2018-12-18T22:46:26.723Z,9.57
2018-12-18T22:48:55.303Z,8.97
2018-12-18T22:51:23.540Z,8.67
2018-12-18T22:53:52.193Z,8.47
2018-12-18T22:56:21.901Z,7.87
2018-12-18T22:58:50.688Z,8.50
2018-12-18T23:01:24.447Z,8.80
2018-12-18T23:03:53.126Z,8.70
2018-12-18T23:06:22.231Z,8.10
2018-12-18T23:08:51.488Z,9.47
2018-12-18T23:11:20.127Z,7.50
2018-12-18T23:13:50.076Z,8.03
2018-12-18T23:16:18.872Z,8.27
2018-12-18T23:18:47.922Z,8.60
2018-12-18T23:21:16.688Z,9.70
2018-12-18T23:23:44.871Z,8.80
2018-12-18T23:26:13.292Z,8.30
2018-12-18T23:28:41.563Z,8.63
2018-12-18T23:31:09.768Z,9.53
2018-12-18T23:33:38.823Z,9.25
2018-12-18T23:36:07.067Z,8.87
2018-12-18T23:38:35.913Z,9.00
2018-12-18T23:41:04.180Z,9.43
2018-12-18T23:43:33.371Z,9.20
2018-12-18T23:46:03.203Z,9.97
2018-12-18T23:48:31.551Z,10.50
2018-12-18T23:51:00.440Z,10.33
2018-12-18T23:53:28.651Z,10.00
2018-12-18T23:55:56.822Z,10.13
2018-12-18T23:58:25.287Z,9.53
